createdAt,value
2022-08-26T00:02:11.703Z,51.93
2022-08-26T00:04:40.077Z,48.50
2022-08-26T00:07:08.497Z,51.43
2022-08-26T00:09:40.181Z,43.13
2022-08-26T00:12:12.428Z,48.87
2022-08-26T00:14:40.974Z,51.87
2022-08-26T00:17:09.466Z,50.00
2022-08-26T00:19:38.022Z,53.40
2022-08-26T00:22:06.433Z,41.93
2022-08-26T00:24:34.933Z,47.30
2022-08-26T00:27:03.276Z,49.83
2022-08-26T00:29:35.502Z,45.13
2022-08-26T00:32:06.211Z,49.83
2022-08-26T00:34:34.507Z,23.70
2022-08-26T00:37:03.076Z,32.80
2022-08-26T00:39:31.714Z,18.30
2022-08-26T00:42:00.497Z,19.63
2022-08-26T00:44:29.104Z,26.40
2022-08-26T00:47:02.618Z,16.17
2022-08-26T00:49:33.322Z,21.53
2022-08-26T00:52:03.004Z,29.63
2022-08-26T00:54:34.751Z,37.80
2022-08-26T00:57:04.275Z,37.67
2022-08-26T00:59:38.835Z,36.27
2022-08-26T01:02:08.662Z,35.20
2022-08-26T01:04:49.274Z,23.23
2022-08-26T01:07:23.935Z,28.03
2022-08-26T01:09:52.190Z,29.13
2022-08-26T01:12:22.132Z,26.30
2022-08-26T01:14:50.741Z,27.63
2022-08-26T01:17:20.536Z,27.97
2022-08-26T01:19:50.637Z,14.20
2022-08-26T01:22:21.152Z,25.33
2022-08-26T01:24:56.437Z,23.73
2022-08-26T01:27:27.303Z,13.53
2022-08-26T01:30:01.151Z,14.00
2022-08-26T01:32:30.840Z,26.53
2022-08-26T01:35:00.310Z,25.33
2022-08-26T01:37:30.892Z,25.33
2022-08-26T01:40:00.644Z,12.50
2022-08-26T01:42:29.215Z,11.40
2022-08-26T01:44:59.457Z,13.70
2022-08-26T01:47:30.035Z,17.97
2022-08-26T01:50:00.214Z,27.80
2022-08-26T01:52:30.153Z,12.23
2022-08-26T01:55:00.952Z,13.83
2022-08-26T01:57:29.860Z,13.30
2022-08-26T02:00:00.191Z,24.90
2022-08-26T02:02:28.846Z,21.80
2022-08-26T02:05:00.245Z,20.73
2022-08-26T02:07:29.142Z,15.37
2022-08-26T02:09:57.532Z,23.90
2022-08-26T02:12:27.724Z,24.60
2022-08-26T02:14:57.317Z,13.23
2022-08-26T02:17:28.040Z,24.23
2022-08-26T02:19:57.130Z,20.83
2022-08-26T02:22:26.362Z,17.40
2022-08-26T02:24:55.813Z,11.43
2022-08-26T02:27:25.093Z,12.53
2022-08-26T02:29:59.158Z,13.33
2022-08-26T02:32:27.718Z,11.03
2022-08-26T02:34:56.002Z,20.17
2022-08-26T02:37:24.255Z,14.77
2022-08-26T02:39:53.991Z,12.60
2022-08-26T02:42:22.302Z,16.03
2022-08-26T02:45:01.426Z,10.87
2022-08-26T02:47:29.707Z,11.77
2022-08-26T02:50:00.697Z,17.33
2022-08-26T02:52:29.017Z,17.23
2022-08-26T02:54:57.277Z,16.27
2022-08-26T02:57:25.543Z,13.23
2022-08-26T02:59:54.480Z,17.57
2022-08-26T03:02:24.216Z,14.97
2022-08-26T03:04:57.700Z,14.70
2022-08-26T03:07:30.368Z,13.97
2022-08-26T03:10:00.069Z,12.20
2022-08-26T03:12:28.927Z,13.20
2022-08-26T03:14:58.489Z,10.00
2022-08-26T03:17:28.073Z,10.33
2022-08-26T03:19:57.371Z,17.13
2022-08-26T03:22:25.866Z,17.93
2022-08-26T03:24:55.608Z,12.13
2022-08-26T03:27:23.912Z,16.03
2022-08-26T03:30:11.741Z,23.10
2022-08-26T03:32:41.637Z,12.57
2022-08-26T03:35:10.191Z,10.37
2022-08-26T03:37:38.688Z,11.57
2022-08-26T03:40:08.998Z,8.77
2022-08-26T03:42:37.707Z,10.80
2022-08-26T03:45:07.523Z,9.93
2022-08-26T03:47:35.792Z,11.30
2022-08-26T03:50:08.476Z,12.63
2022-08-26T03:52:43.054Z,17.33
2022-08-26T03:55:12.417Z,12.93
2022-08-26T03:57:40.686Z,10.33
2022-08-26T04:00:13.673Z,11.23
2022-08-26T04:02:43.881Z,10.63
2022-08-26T04:05:14.947Z,13.10
2022-08-26T04:07:43.645Z,13.33
2022-08-26T04:10:12.961Z,11.63
2022-08-26T04:12:41.291Z,9.00
2022-08-26T04:15:10.981Z,10.03
2022-08-26T04:17:39.260Z,15.43
2022-08-26T04:20:08.541Z,17.77
2022-08-26T04:22:38.744Z,20.13
2022-08-26T04:25:07.403Z,12.87
2022-08-26T04:27:35.660Z,12.53
2022-08-26T04:30:03.976Z,12.33
2022-08-26T04:32:32.640Z,13.53
2022-08-26T04:35:00.965Z,9.10
2022-08-26T04:37:31.177Z,11.33
2022-08-26T04:40:02.356Z,8.73
2022-08-26T04:42:33.707Z,10.50
2022-08-26T04:45:05.769Z,11.30
2022-08-26T04:47:38.291Z,11.33
2022-08-26T04:50:07.339Z,10.00
2022-08-26T04:52:36.198Z,11.50
2022-08-26T04:55:08.631Z,10.07
2022-08-26T04:57:37.001Z,15.57
2022-08-26T05:00:06.464Z,19.90
2022-08-26T05:02:34.690Z,12.03
2022-08-26T05:05:03.168Z,12.03
2022-08-26T05:07:32.584Z,11.73
2022-08-26T05:10:01.235Z,20.10
2022-08-26T05:12:31.547Z,11.37
2022-08-26T05:14:59.888Z,11.23
2022-08-26T05:17:28.509Z,14.77
2022-08-26T05:19:57.085Z,12.17
2022-08-26T05:22:25.395Z,15.93
2022-08-26T05:24:53.896Z,14.43
2022-08-26T05:27:22.457Z,10.80
2022-08-26T05:29:54.496Z,11.73
2022-08-26T05:32:23.016Z,13.03
2022-08-26T05:34:55.359Z,15.20
2022-08-26T05:37:23.655Z,15.60
2022-08-26T05:39:52.021Z,15.30
2022-08-26T05:42:21.469Z,16.77
2022-08-26T05:44:56.004Z,24.40
2022-08-26T05:47:24.856Z,16.30
2022-08-26T05:49:53.125Z,13.93
2022-08-26T05:52:21.819Z,12.00
2022-08-26T05:54:54.261Z,14.17
2022-08-26T05:57:23.228Z,15.23
2022-08-26T05:59:52.265Z,14.37
2022-08-26T06:02:22.358Z,11.53
2022-08-26T06:04:50.711Z,13.90
2022-08-26T06:07:40.212Z,12.70
2022-08-26T06:10:31.129Z,13.53
2022-08-26T06:12:57.457Z,14.00
2022-08-26T06:15:26.002Z,12.27
2022-08-26T06:17:55.636Z,12.53
2022-08-26T06:20:23.918Z,12.50
2022-08-26T06:23:10.131Z,12.63
2022-08-26T06:25:39.816Z,9.50
2022-08-26T06:28:08.621Z,10.30
2022-08-26T06:30:41.602Z,9.73
2022-08-26T06:33:11.549Z,10.00
2022-08-26T06:35:40.625Z,20.40
2022-08-26T06:38:10.393Z,11.80
2022-08-26T06:40:42.181Z,9.23
2022-08-26T06:43:11.509Z,9.53
2022-08-26T06:45:39.772Z,10.87
2022-08-26T06:48:09.817Z,8.83
2022-08-26T06:50:39.509Z,11.20
2022-08-26T06:53:08.762Z,10.17
2022-08-26T06:55:41.400Z,8.43
2022-08-26T06:58:10.765Z,9.80
2022-08-26T07:00:39.222Z,12.23
2022-08-26T07:03:10.343Z,9.83
2022-08-26T07:05:40.669Z,7.50
2022-08-26T07:08:08.961Z,7.97
2022-08-26T07:10:37.730Z,8.77
2022-08-26T07:13:07.235Z,15.13
2022-08-26T07:15:37.080Z,8.70
2022-08-26T07:18:05.613Z,16.30
2022-08-26T07:20:33.876Z,9.30
2022-08-26T07:23:03.491Z,11.70
2022-08-26T07:25:31.796Z,9.90
2022-08-26T07:28:00.095Z,12.80
2022-08-26T07:30:28.341Z,9.60
2022-08-26T07:32:57.702Z,10.37
2022-08-26T07:35:27.299Z,8.70
2022-08-26T07:37:57.172Z,6.40
2022-08-26T07:40:27.472Z,7.00
2022-08-26T07:42:55.899Z,8.70
2022-08-26T07:45:24.730Z,6.70
2022-08-26T07:47:54.264Z,7.10
2022-08-26T07:50:48.883Z,7.00
2022-08-26T07:53:11.399Z,8.03
2022-08-26T07:55:41.032Z,8.80
2022-08-26T07:58:09.292Z,6.70
2022-08-26T08:00:38.127Z,5.40
2022-08-26T08:03:06.947Z,5.87
2022-08-26T08:05:46.262Z,10.67
2022-08-26T08:08:26.633Z,7.20
2022-08-26T08:10:58.545Z,5.37
2022-08-26T08:13:27.932Z,6.33
2022-08-26T08:15:56.244Z,7.50
2022-08-26T08:18:24.741Z,8.50
2022-08-26T08:21:04.708Z,8.00
2022-08-26T08:23:34.297Z,5.33
2022-08-26T08:26:04.801Z,7.00
2022-08-26T08:28:33.070Z,6.57
2022-08-26T08:31:02.867Z,7.70
2022-08-26T08:33:31.833Z,9.23
2022-08-26T08:36:00.273Z,10.27
2022-08-26T08:38:28.579Z,6.40
2022-08-26T08:40:56.945Z,5.03
2022-08-26T08:43:31.970Z,5.70
2022-08-26T08:46:08.154Z,12.13
2022-08-26T08:48:40.072Z,9.87
2022-08-26T08:51:16.632Z,10.00
2022-08-26T08:53:47.931Z,7.50
2022-08-26T08:56:23.741Z,7.80
2022-08-26T08:58:58.916Z,6.20
2022-08-26T09:01:29.944Z,8.20
2022-08-26T09:04:05.541Z,7.40
2022-08-26T09:06:33.776Z,6.47
2022-08-26T09:09:02.797Z,6.37
2022-08-26T09:11:32.208Z,9.07
2022-08-26T09:14:01.829Z,4.97
2022-08-26T09:16:38.156Z,4.97
2022-08-26T09:19:15.220Z,5.70
2022-08-26T09:21:47.448Z,6.10
2022-08-26T09:24:22.312Z,4.67
2022-08-26T09:26:58.226Z,9.60
2022-08-26T09:29:28.622Z,5.37
2022-08-26T09:32:16.086Z,5.60
2022-08-26T09:34:55.081Z,5.33
2022-08-26T09:37:35.467Z,4.77
2022-08-26T09:40:14.101Z,6.83
2022-08-26T09:42:43.004Z,10.30
2022-08-26T09:45:13.857Z,8.57
2022-08-26T09:47:42.954Z,9.63
2022-08-26T09:50:14.834Z,6.33
2022-08-26T09:52:43.280Z,9.63
2022-08-26T09:55:14.302Z,7.87
2022-08-26T09:57:48.820Z,7.90
2022-08-26T10:00:30.092Z,8.57
2022-08-26T10:02:59.065Z,9.53
2022-08-26T10:05:31.789Z,5.70
2022-08-26T10:08:00.829Z,8.27
2022-08-26T10:10:36.621Z,6.63
2022-08-26T10:13:08.597Z,12.47
2022-08-26T10:15:48.647Z,11.07
2022-08-26T10:18:20.739Z,5.57
2022-08-26T10:20:54.546Z,8.13
2022-08-26T10:23:25.326Z,6.37
2022-08-26T10:25:59.039Z,6.00
2022-08-26T10:28:33.653Z,6.37
2022-08-26T10:31:06.452Z,3.17
2022-08-26T10:33:34.862Z,6.40
2022-08-26T10:36:04.989Z,4.53
2022-08-26T10:38:35.605Z,8.17
2022-08-26T10:41:10.350Z,9.93
2022-08-26T10:43:40.944Z,4.33
2022-08-26T10:46:14.681Z,10.73
2022-08-26T10:48:46.357Z,10.10
2022-08-26T10:51:16.285Z,7.70
2022-08-26T10:53:51.447Z,12.17
2022-08-26T10:56:24.401Z,10.23
2022-08-26T10:58:56.797Z,6.67
2022-08-26T11:01:43.307Z,4.90
2022-08-26T11:04:16.928Z,4.70
2022-08-26T11:06:46.089Z,15.70
2022-08-26T11:09:34.612Z,8.87
2022-08-26T11:12:10.308Z,5.07
2022-08-26T11:14:53.748Z,7.00
2022-08-26T11:17:55.312Z,6.13
2022-08-26T11:20:33.885Z,11.27
2022-08-26T11:23:17.897Z,4.53
2022-08-26T11:26:01.000Z,4.77
2022-08-26T11:28:35.763Z,4.93
2022-08-26T11:31:04.530Z,7.20
2022-08-26T11:33:47.815Z,5.70
2022-08-26T11:36:34.841Z,6.50
2022-08-26T11:39:03.581Z,5.63
2022-08-26T11:41:32.458Z,6.77
2022-08-26T11:44:05.402Z,5.37
2022-08-26T11:46:37.468Z,8.30
2022-08-26T11:49:06.819Z,3.60
2022-08-26T11:51:40.210Z,3.93
2022-08-26T11:54:10.678Z,4.87
2022-08-26T11:56:39.682Z,7.30
2022-08-26T11:59:11.806Z,9.10
2022-08-26T12:01:41.533Z,5.73
2022-08-26T12:04:11.771Z,11.50
2022-08-26T12:06:45.213Z,3.90
2022-08-26T12:09:16.477Z,4.00
2022-08-26T12:11:47.713Z,7.83
2022-08-26T12:14:20.513Z,3.20
2022-08-26T12:16:49.054Z,7.50
2022-08-26T12:19:26.054Z,6.90
2022-08-26T12:21:57.882Z,5.80
2022-08-26T12:24:26.362Z,5.83
2022-08-26T12:27:06.799Z,7.80
2022-08-26T12:29:37.281Z,5.10
2022-08-26T12:32:13.204Z,4.63
2022-08-26T12:34:42.367Z,8.30
2022-08-26T12:37:11.703Z,6.13
2022-08-26T12:39:40.669Z,11.20
2022-08-26T12:42:23.190Z,4.87
2022-08-26T12:44:59.978Z,3.60
2022-08-26T12:47:40.086Z,4.00
2022-08-26T12:50:13.758Z,6.53
2022-08-26T12:52:44.505Z,5.40
2022-08-26T12:55:20.809Z,5.73
2022-08-26T12:57:49.080Z,4.10
2022-08-26T13:00:31.215Z,7.00
2022-08-26T13:02:59.897Z,7.83
2022-08-26T13:05:33.119Z,5.80
2022-08-26T13:08:22.401Z,3.20
2022-08-26T13:11:03.021Z,4.10
2022-08-26T13:13:31.281Z,7.60
2022-08-26T13:16:00.953Z,3.00
2022-08-26T13:18:29.381Z,8.53
2022-08-26T13:20:57.897Z,8.03
2022-08-26T13:23:26.682Z,7.20
2022-08-26T13:25:54.956Z,9.10
2022-08-26T13:28:23.221Z,5.13
2022-08-26T13:30:52.086Z,6.83
2022-08-26T13:33:22.687Z,6.53
2022-08-26T13:35:50.929Z,5.23
2022-08-26T13:38:33.455Z,4.40
2022-08-26T13:41:03.455Z,4.33
2022-08-26T13:43:32.158Z,4.23
2022-08-26T13:46:01.649Z,4.90
2022-08-26T13:48:31.524Z,7.30
2022-08-26T13:51:00.135Z,10.60
2022-08-26T13:53:29.420Z,5.63
2022-08-26T13:55:58.261Z,4.47
2022-08-26T13:58:26.810Z,4.40
2022-08-26T14:00:55.237Z,5.23
2022-08-26T14:03:24.642Z,4.40
2022-08-26T14:05:54.942Z,4.63
2022-08-26T14:08:23.496Z,5.20
2022-08-26T14:10:51.759Z,6.97
2022-08-26T14:13:20.356Z,5.37
2022-08-26T14:15:48.782Z,8.40
2022-08-26T14:18:18.593Z,4.10
2022-08-26T14:20:49.304Z,4.43
2022-08-26T14:23:19.202Z,5.30
2022-08-26T14:25:47.495Z,5.73
2022-08-26T14:28:15.783Z,4.50
2022-08-26T14:30:44.814Z,4.57
2022-08-26T14:33:14.527Z,4.00
2022-08-26T14:35:47.356Z,6.60
2022-08-26T14:38:18.672Z,3.53
2022-08-26T14:40:47.125Z,5.03
2022-08-26T14:43:16.164Z,3.03
2022-08-26T14:45:45.584Z,4.47
2022-08-26T14:48:14.113Z,7.87
2022-08-26T14:50:42.409Z,4.97
2022-08-26T14:53:36.635Z,4.10
2022-08-26T14:56:06.492Z,8.83
2022-08-26T14:58:34.804Z,5.20
2022-08-26T15:01:04.449Z,4.83
2022-08-26T15:03:32.815Z,6.37
2022-08-26T15:06:01.130Z,4.83
2022-08-26T15:08:29.377Z,4.70
2022-08-26T15:10:57.658Z,3.90
2022-08-26T15:13:27.471Z,5.60
2022-08-26T15:15:55.890Z,6.53
2022-08-26T15:18:24.197Z,4.17
2022-08-26T15:20:52.446Z,5.37
2022-08-26T15:23:20.873Z,3.07
2022-08-26T15:25:49.608Z,4.60
2022-08-26T15:28:17.873Z,6.27
2022-08-26T15:30:47.754Z,7.50
2022-08-26T15:33:16.005Z,4.40
2022-08-26T15:35:44.371Z,5.50
2022-08-26T15:38:13.498Z,4.27
2022-08-26T15:40:43.135Z,5.60
2022-08-26T15:43:27.688Z,5.27
2022-08-26T15:45:58.364Z,4.30
2022-08-26T15:48:27.125Z,3.83
2022-08-26T15:50:56.475Z,5.23
2022-08-26T15:53:25.387Z,3.70
2022-08-26T15:55:55.178Z,6.17
2022-08-26T15:58:26.401Z,3.70
2022-08-26T16:00:55.968Z,4.10
2022-08-26T16:03:25.556Z,4.07
2022-08-26T16:05:53.893Z,5.60
2022-08-26T16:08:22.332Z,7.20
2022-08-26T16:10:51.329Z,4.50
2022-08-26T16:13:20.447Z,4.70
2022-08-26T16:15:49.003Z,4.30
2022-08-26T16:18:20.571Z,5.50
2022-08-26T16:21:12.807Z,3.43
2022-08-26T16:23:44.909Z,6.33
2022-08-26T16:26:26.531Z,4.27
2022-08-26T16:28:58.233Z,9.13
2022-08-26T16:31:26.522Z,6.27
2022-08-26T16:33:55.094Z,7.27
2022-08-26T16:36:25.043Z,2.57
2022-08-26T16:38:56.051Z,4.70
2022-08-26T16:41:24.923Z,2.87
2022-08-26T16:43:53.200Z,7.87
2022-08-26T16:46:46.352Z,9.90
2022-08-26T16:49:14.665Z,4.63
2022-08-26T16:51:44.285Z,6.00
2022-08-26T16:54:12.605Z,8.20
2022-08-26T16:56:40.907Z,6.43
2022-08-26T16:59:11.405Z,4.30
2022-08-26T17:01:39.795Z,5.77
2022-08-26T17:04:08.193Z,4.77
2022-08-26T17:06:36.665Z,10.43
2022-08-26T17:09:13.663Z,5.63
2022-08-26T17:11:41.886Z,5.73
2022-08-26T17:14:10.119Z,7.63
2022-08-26T17:16:38.376Z,5.20
2022-08-26T17:19:08.104Z,5.40
2022-08-26T17:21:37.189Z,5.10
2022-08-26T17:24:05.598Z,4.80
2022-08-26T17:26:35.834Z,5.30
2022-08-26T17:29:04.109Z,4.03
2022-08-26T17:31:32.945Z,4.17
2022-08-26T17:34:01.253Z,6.50
2022-08-26T17:36:29.503Z,4.60
2022-08-26T17:38:58.541Z,5.73
2022-08-26T17:41:28.517Z,11.60
2022-08-26T17:43:58.369Z,7.80
2022-08-26T17:46:27.042Z,3.47
2022-08-26T17:48:55.303Z,4.37
2022-08-26T17:51:23.649Z,4.50
2022-08-26T17:53:52.697Z,3.93
2022-08-26T17:56:23.846Z,5.37
2022-08-26T17:58:52.511Z,4.87
2022-08-26T18:01:23.402Z,7.13
2022-08-26T18:03:52.286Z,4.30
2022-08-26T18:06:24.526Z,3.40
2022-08-26T18:08:53.541Z,4.13
2022-08-26T18:11:24.433Z,4.00
2022-08-26T18:13:53.147Z,3.13
2022-08-26T18:16:23.274Z,4.80
2022-08-26T18:18:53.348Z,4.73
2022-08-26T18:21:23.216Z,7.07
2022-08-26T18:23:51.875Z,4.33
2022-08-26T18:26:20.901Z,5.03
2022-08-26T18:28:49.157Z,4.90
2022-08-26T18:31:18.273Z,7.60
2022-08-26T18:33:48.355Z,4.73
2022-08-26T18:36:17.950Z,5.73
2022-08-26T18:38:46.214Z,3.40
2022-08-26T18:41:14.731Z,4.70
2022-08-26T18:43:43.129Z,3.90
2022-08-26T18:46:12.432Z,5.33
2022-08-26T18:48:41.687Z,3.40
2022-08-26T18:51:16.917Z,3.53
2022-08-26T18:53:45.204Z,5.93
2022-08-26T18:56:15.428Z,2.70
2022-08-26T18:58:46.912Z,4.17
2022-08-26T19:01:18.265Z,2.33
2022-08-26T19:03:46.954Z,4.57
2022-08-26T19:06:17.418Z,5.23
2022-08-26T19:08:46.085Z,3.83
2022-08-26T19:11:18.530Z,4.60
2022-08-26T19:14:01.130Z,3.40
2022-08-26T19:16:30.029Z,3.47
2022-08-26T19:18:58.369Z,2.67
2022-08-26T19:21:28.461Z,5.67
2022-08-26T19:23:58.028Z,3.30
2022-08-26T19:26:26.436Z,3.93
2022-08-26T19:28:54.914Z,3.90
2022-08-26T19:31:23.571Z,4.20
2022-08-26T19:33:51.940Z,4.33
2022-08-26T19:36:22.351Z,3.80
2022-08-26T19:38:52.000Z,4.97
2022-08-26T19:41:22.478Z,5.30
2022-08-26T19:43:51.941Z,4.03
2022-08-26T19:46:23.084Z,4.63
2022-08-26T19:48:54.120Z,2.10
2022-08-26T19:51:25.437Z,4.17
2022-08-26T19:53:55.538Z,4.20
2022-08-26T19:56:24.028Z,2.20
2022-08-26T19:58:52.681Z,4.10
2022-08-26T20:01:21.166Z,3.13
2022-08-26T20:03:49.581Z,3.20
2022-08-26T20:06:18.313Z,4.63
2022-08-26T20:08:47.314Z,3.60
2022-08-26T20:11:20.542Z,4.57
2022-08-26T20:13:49.381Z,4.50
2022-08-26T20:16:18.244Z,3.60
2022-08-26T20:19:04.493Z,7.03
2022-08-26T20:21:35.563Z,3.53
2022-08-26T20:24:09.301Z,5.57
2022-08-26T20:26:39.854Z,3.60
2022-08-26T20:29:09.101Z,5.57
2022-08-26T20:31:37.928Z,6.57
2022-08-26T20:34:06.700Z,4.67
2022-08-26T20:36:35.491Z,3.50
2022-08-26T20:39:04.069Z,6.63
2022-08-26T20:41:32.867Z,6.60
2022-08-26T20:44:02.970Z,3.73
2022-08-26T20:46:31.630Z,3.53
2022-08-26T20:48:59.940Z,4.30
2022-08-26T20:51:29.447Z,7.00
2022-08-26T20:53:57.792Z,4.70
2022-08-26T20:56:26.103Z,7.13
2022-08-26T20:58:55.361Z,7.60
2022-08-26T21:01:26.779Z,5.57
2022-08-26T21:03:55.742Z,8.67
2022-08-26T21:06:24.845Z,8.10
2022-08-26T21:08:53.293Z,7.23
2022-08-26T21:11:22.497Z,6.10
2022-08-26T21:14:06.959Z,8.77
2022-08-26T21:16:41.274Z,6.40
2022-08-26T21:19:11.672Z,9.30
2022-08-26T21:21:40.678Z,8.80
2022-08-26T21:24:09.184Z,6.03
2022-08-26T21:26:37.469Z,8.10
2022-08-26T21:29:06.684Z,5.17
2022-08-26T21:31:35.194Z,9.87
2022-08-26T21:34:04.973Z,8.90
2022-08-26T21:36:33.815Z,7.27
2022-08-26T21:39:02.950Z,5.60
2022-08-26T21:41:31.239Z,6.97
2022-08-26T21:44:00.125Z,4.70
2022-08-26T21:46:29.347Z,5.20
2022-08-26T21:48:58.458Z,4.57
2022-08-26T21:51:30.493Z,6.93
2022-08-26T21:53:59.614Z,7.83
2022-08-26T21:56:28.983Z,8.43
2022-08-26T21:58:58.211Z,8.03
2022-08-26T22:01:27.565Z,6.10
2022-08-26T22:03:56.108Z,4.80
2022-08-26T22:06:25.079Z,6.53
2022-08-26T22:08:55.845Z,4.80
2022-08-26T22:11:26.368Z,9.80
2022-08-26T22:13:55.186Z,4.00
2022-08-26T22:16:23.899Z,7.70
2022-08-26T22:18:53.326Z,5.70
2022-08-26T22:21:24.411Z,3.50
2022-08-26T22:23:56.121Z,9.17
2022-08-26T22:26:28.979Z,6.87
2022-08-26T22:28:58.974Z,3.00
2022-08-26T22:31:38.116Z,5.43
2022-08-26T22:34:08.213Z,5.97
2022-08-26T22:36:39.755Z,4.60
2022-08-26T22:39:11.659Z,4.67
2022-08-26T22:41:41.288Z,2.93
2022-08-26T22:44:10.264Z,6.90
2022-08-26T22:46:38.576Z,4.87
2022-08-26T22:49:06.928Z,5.33
2022-08-26T22:51:35.144Z,6.53
2022-08-26T22:54:03.355Z,7.03
2022-08-26T22:56:31.612Z,9.97
2022-08-26T22:59:01.237Z,5.40
2022-08-26T23:01:29.605Z,5.87
2022-08-26T23:03:57.923Z,2.80
2022-08-26T23:06:26.191Z,5.63
2022-08-26T23:08:54.439Z,4.70
2022-08-26T23:11:22.833Z,4.27
2022-08-26T23:13:51.085Z,4.60
2022-08-26T23:16:21.127Z,5.90
2022-08-26T23:18:50.322Z,4.40
2022-08-26T23:21:18.765Z,4.43
2022-08-26T23:23:47.052Z,2.97
2022-08-26T23:26:17.645Z,4.80
2022-08-26T23:28:46.704Z,5.37
2022-08-26T23:31:15.317Z,3.73
2022-08-26T23:34:02.793Z,7.70
2022-08-26T23:36:31.160Z,5.53
2022-08-26T23:39:03.368Z,6.40
2022-08-26T23:41:31.997Z,4.43
2022-08-26T23:44:03.399Z,5.53
2022-08-26T23:46:32.096Z,6.23
2022-08-26T23:49:01.986Z,8.83
2022-08-26T23:51:48.271Z,7.00
2022-08-26T23:54:16.940Z,4.50
2022-08-26T23:56:45.284Z,4.27
2022-08-26T23:59:13.644Z,3.93
